Ina Theresa — V7UJ2 — position and weather

sailwx.info

Track history (hours):
 
Tides and Currents Weather Stations Pressure Air Temp Water Temp Dewpoint Dewpoint Depression Visibility Wind Speed Wind Dir Waves Ship Positions

Ina Theresa

Last reported at 2018-Feb-17 21:30 UTC. Time now 2018-Feb-17 21:47 UTC.
Position N 33°13' E 132°03'.

Length 122 m; draft 8.8 m.

Type: Ship. MMSI: 538004548.

Date/timePositionNaut miles runAvg speedWind from/ knotsBaromVisibWave heightAir tempDewpointWater temp
2018-Feb-17 21:30N 33°13' E 132°03'714.6
2018-Feb-17 21:00N 33°19' E 131°59'714.3
2018-Feb-17 20:31N 33°25' E 131°55'815.1
2018-Feb-17 20:00N 33°32' E 131°51'815.2
2018-Feb-17 19:30N 33°39' E 131°47'815.4
2018-Feb-17 19:00N 33°45' E 131°42'815.5
2018-Feb-17 18:31N 33°47' E 131°33'815.5
2018-Feb-17 18:00N 33°49' E 131°24'815.6
2018-Feb-17 17:30N 33°51' E 131°15'815.6
2018-Feb-17 17:01N 33°54' E 131°07'714.4
2018-Feb-17 16:31N 33°58' E 130°60'612.2
2018-Feb-17 16:00N 33°54' E 130°54'713.5
2018-Feb-17 15:31N 34°00' E 130°50'816.2
2018-Feb-17 15:00N 34°05' E 130°42'816.7
2018-Feb-17 14:31N 34°10' E 130°34'816.9
2018-Feb-17 14:00N 34°15' E 130°26'816.9
2018-Feb-17 13:31N 34°20' E 130°18'816.9
2018-Feb-17 13:00N 34°25' E 130°10'816.9
2018-Feb-17 12:30N 34°30' E 130°02'  
2018-Feb-12 03:18N 30°59' E 122°31'415.2
2018-Feb-12 03:00N 31°00' E 122°26'714.9
2018-Feb-12 02:30N 31°02' E 122°18'714.3
2018-Feb-12 02:00N 31°03' E 122°10'611.0
2018-Feb-12 01:30N 31°04' E 122°04'5 9.2
2018-Feb-12 01:00N 31°06' E 121°59'4 8.1
2018-Feb-12 00:30N 31°08' E 121°54'611.5
2018-Feb-11 23:58N 31°12' E 121°49'11 1.1
2018-Feb-11 13:38N 31°20' E 121°40'1 2.3
2018-Feb-11 13:22N 31°20' E 121°41'5 9.2
2018-Feb-11 12:51N 31°17' E 121°45'514.1
2018-Feb-11 12:29N 31°13' E 121°49'713.8
2018-Feb-11 12:00N 31°08' E 121°55'611.5
2018-Feb-11 11:30N 31°06' E 122°00'612.6
2018-Feb-11 11:00N 31°04' E 122°07'611.0
2018-Feb-11 10:31N 31°03' E 122°14'4 7.7
2018-Feb-11 10:01N 31°02' E 122°18'3 6.4
2018-Feb-11 09:31N 31°02' E 122°22'813.1
2018-Feb-11 08:56N 31°00' E 122°30'  
2018-Feb-09 00:00N 34°29' E 130°06'917.0
2018-Feb-08 23:30N 34°24' E 130°14'917.3
2018-Feb-08 23:00N 34°19' E 130°23'5814.4
2018-Feb-08 19:00N 33°50' E 131°23'4016.0
2018-Feb-08 16:30N 33°22' E 131°57'  
Track history (hours):
 
Tides and Currents Weather Stations Pressure Air Temp Water Temp Dewpoint Dewpoint Depression Visibility Wind Speed Wind Dir Waves Ship Positions

Ina Theresa

Last reported at 2018-Feb-17 21:30 UTC. Time now 2018-Feb-17 21:47 UTC.
Position N 33°13' E 132°03'.

Length 122 m; draft 8.8 m.

Type: Ship. MMSI: 538004548.

Date/timePositionNaut miles runAvg speedWind from/ knotsBaromVisibWave heightAir tempDewpointWater temp
2018-Feb-17 21:30N 33°13' E 132°03'714.6
2018-Feb-17 21:00N 33°19' E 131°59'714.3
2018-Feb-17 20:31N 33°25' E 131°55'815.1
2018-Feb-17 20:00N 33°32' E 131°51'815.2
2018-Feb-17 19:30N 33°39' E 131°47'815.4
2018-Feb-17 19:00N 33°45' E 131°42'815.5
2018-Feb-17 18:31N 33°47' E 131°33'815.5
2018-Feb-17 18:00N 33°49' E 131°24'815.6
2018-Feb-17 17:30N 33°51' E 131°15'815.6
2018-Feb-17 17:01N 33°54' E 131°07'714.4
2018-Feb-17 16:31N 33°58' E 130°60'612.2
2018-Feb-17 16:00N 33°54' E 130°54'713.5
2018-Feb-17 15:31N 34°00' E 130°50'816.2
2018-Feb-17 15:00N 34°05' E 130°42'816.7
2018-Feb-17 14:31N 34°10' E 130°34'816.9
2018-Feb-17 14:00N 34°15' E 130°26'816.9
2018-Feb-17 13:31N 34°20' E 130°18'816.9
2018-Feb-17 13:00N 34°25' E 130°10'816.9
2018-Feb-17 12:30N 34°30' E 130°02'  
2018-Feb-12 03:18N 30°59' E 122°31'415.2
2018-Feb-12 03:00N 31°00' E 122°26'714.9
2018-Feb-12 02:30N 31°02' E 122°18'714.3
2018-Feb-12 02:00N 31°03' E 122°10'611.0
2018-Feb-12 01:30N 31°04' E 122°04'5 9.2
2018-Feb-12 01:00N 31°06' E 121°59'4 8.1
2018-Feb-12 00:30N 31°08' E 121°54'611.5
2018-Feb-11 23:58N 31°12' E 121°49'11 1.1
2018-Feb-11 13:38N 31°20' E 121°40'1 2.3
2018-Feb-11 13:22N 31°20' E 121°41'5 9.2
2018-Feb-11 12:51N 31°17' E 121°45'514.1
2018-Feb-11 12:29N 31°13' E 121°49'713.8
2018-Feb-11 12:00N 31°08' E 121°55'611.5
2018-Feb-11 11:30N 31°06' E 122°00'612.6
2018-Feb-11 11:00N 31°04' E 122°07'611.0
2018-Feb-11 10:31N 31°03' E 122°14'4 7.7
2018-Feb-11 10:01N 31°02' E 122°18'3 6.4
2018-Feb-11 09:31N 31°02' E 122°22'813.1
2018-Feb-11 08:56N 31°00' E 122°30'  
2018-Feb-09 00:00N 34°29' E 130°06'917.0
2018-Feb-08 23:30N 34°24' E 130°14'917.3
2018-Feb-08 23:00N 34°19' E 130°23'5814.4
2018-Feb-08 19:00N 33°50' E 131°23'4016.0
2018-Feb-08 16:30N 33°22' E 131°57'  

Dump ship's entire track history